createdAt,value
2023-05-01T00:01:44.342Z,145411.41
2023-05-01T00:04:11.568Z,145400.47
2023-05-01T00:06:38.814Z,145378.59
2023-05-01T00:09:07.006Z,145395.63
2023-05-01T00:11:37.250Z,145415.03
2023-05-01T00:14:04.594Z,145419.94
2023-05-01T00:16:31.639Z,145405.31
2023-05-01T00:18:58.660Z,145401.72
2023-05-01T00:21:25.673Z,145385.91
2023-05-01T00:23:52.689Z,145332.47
2023-05-01T00:26:20.288Z,145371.34
2023-05-01T00:28:48.831Z,145383.50
2023-05-01T00:31:15.913Z,145373.75
2023-05-01T00:33:42.926Z,145365.28
2023-05-01T00:36:10.532Z,145400.47
2023-05-01T00:38:37.514Z,145389.56
2023-05-01T00:41:04.515Z,145391.97
2023-05-01T00:43:31.595Z,145388.34
2023-05-01T00:45:58.676Z,145376.19
2023-05-01T00:48:26.206Z,145357.97
2023-05-01T00:50:54.172Z,145345.84
2023-05-01T00:53:22.353Z,145294.88
2023-05-01T00:55:50.789Z,145320.38
2023-05-01T00:58:18.697Z,145300.91
2023-05-01T01:00:46.189Z,145262.09
2023-05-01T01:03:13.267Z,145281.50
2023-05-01T01:05:51.371Z,145268.16
2023-05-01T01:08:32.544Z,145254.78
2023-05-01T01:11:38.135Z,145257.25
2023-05-01T01:14:11.598Z,145240.19
2023-05-01T01:16:51.478Z,145245.06
2023-05-01T01:19:36.611Z,145234.16
2023-05-01T01:22:12.262Z,145155.25
2023-05-01T01:24:57.425Z,145213.50
2023-05-01T01:27:58.149Z,145200.16
2023-05-01T01:31:06.284Z,145198.94
2023-05-01T01:33:52.507Z,145166.19
2023-05-01T01:36:23.507Z,145226.84
2023-05-01T01:39:08.843Z,145215.94
2023-05-01T01:41:38.430Z,145168.59
2023-05-01T01:44:23.124Z,145191.66
2023-05-01T01:46:54.215Z,145191.66
2023-05-01T01:49:26.717Z,145213.50
2023-05-01T01:51:55.560Z,145232.91
2023-05-01T01:54:35.460Z,145240.19
2023-05-01T01:57:04.893Z,145206.25
2023-05-01T01:59:34.678Z,145206.25
2023-05-01T02:02:04.932Z,145148.00
2023-05-01T02:04:33.462Z,145161.34
2023-05-01T02:07:01.357Z,145157.69
2023-05-01T02:09:30.403Z,145152.84
2023-05-01T02:11:58.611Z,145135.84
2023-05-01T02:14:27.037Z,145150.41
2023-05-01T02:16:56.170Z,145165.00
2023-05-01T02:19:24.549Z,145133.44
2023-05-01T02:21:55.867Z,145148.00
2023-05-01T02:24:24.830Z,145106.75
2023-05-01T02:26:56.681Z,145150.41
2023-05-01T02:29:25.408Z,145126.16
2023-05-01T02:31:52.601Z,145152.84
2023-05-01T02:34:19.729Z,145160.09
2023-05-01T02:36:46.762Z,145071.56
2023-05-01T02:39:13.941Z,145155.25
2023-05-01T02:41:41.917Z,145178.28
2023-05-01T02:44:11.311Z,145183.19
2023-05-01T02:46:43.224Z,145165.00
2023-05-01T02:49:12.327Z,145184.41
2023-05-01T02:51:41.010Z,145160.09
2023-05-01T02:54:08.942Z,145165.00
2023-05-01T02:56:36.216Z,145135.84
2023-05-01T02:59:03.371Z,145087.31
2023-05-01T03:01:30.914Z,145118.84
2023-05-01T03:03:58.236Z,145072.75
2023-05-01T03:06:25.468Z,145103.09
2023-05-01T03:08:52.477Z,145123.69
2023-05-01T03:11:19.455Z,145065.50
2023-05-01T03:13:47.495Z,145101.91
2023-05-01T03:16:14.525Z,145120.09
2023-05-01T03:18:41.586Z,145111.59
2023-05-01T03:21:08.851Z,145124.94
2023-05-01T03:23:36.111Z,145124.94
2023-05-01T03:26:03.113Z,145135.84
2023-05-01T03:28:30.192Z,145105.50
2023-05-01T03:30:57.317Z,145133.44
2023-05-01T03:33:24.537Z,145121.31
2023-05-01T03:36:04.110Z,145149.19
2023-05-01T03:38:32.935Z,145154.06
2023-05-01T03:41:26.112Z,145155.25
2023-05-01T03:44:09.292Z,145133.44
2023-05-01T03:46:41.919Z,145163.75
2023-05-01T03:49:14.216Z,145155.25
2023-05-01T03:51:46.637Z,145131.00
2023-05-01T03:54:14.108Z,145114.00
2023-05-01T03:56:58.453Z,145150.41
2023-05-01T03:59:25.558Z,145075.22
2023-05-01T04:01:53.029Z,145118.84
2023-05-01T04:04:21.298Z,145162.53
2023-05-01T04:06:55.489Z,145175.91
2023-05-01T04:09:22.674Z,145131.00
2023-05-01T04:11:49.709Z,145172.25
2023-05-01T04:14:17.044Z,145186.78
2023-05-01T04:16:44.198Z,145189.25
2023-05-01T04:19:11.220Z,145175.91
2023-05-01T04:21:42.376Z,145169.84
2023-05-01T04:24:09.496Z,145168.59
2023-05-01T04:26:36.760Z,145173.44
2023-05-01T04:29:03.834Z,145106.75
2023-05-01T04:31:30.981Z,145152.84
2023-05-01T04:33:58.635Z,145205.00
2023-05-01T04:36:25.723Z,145232.91
2023-05-01T04:38:52.779Z,145263.31
2023-05-01T04:41:19.826Z,145271.81
2023-05-01T04:43:48.083Z,145300.91
2023-05-01T04:46:18.617Z,145293.66
2023-05-01T04:48:45.722Z,145296.06
2023-05-01T04:51:12.769Z,145288.81
2023-05-01T04:53:40.074Z,145315.50
2023-05-01T04:56:16.281Z,145310.66
2023-05-01T04:58:44.080Z,145330.06
2023-05-01T05:01:15.426Z,145320.38
2023-05-01T05:03:42.871Z,145337.31
2023-05-01T05:06:11.431Z,145334.94
2023-05-01T05:08:38.660Z,145351.94
2023-05-01T05:11:10.850Z,145366.50
2023-05-01T05:14:01.145Z,145313.06
2023-05-01T05:16:28.313Z,145388.34
2023-05-01T05:18:56.701Z,145364.03
2023-05-01T05:21:25.400Z,145436.88
2023-05-01T05:23:56.028Z,145445.41
2023-05-01T05:26:23.504Z,145463.63
2023-05-01T05:28:50.962Z,145466.06
2023-05-01T05:31:17.995Z,145495.19
2023-05-01T05:33:45.165Z,145497.63
2023-05-01T05:36:14.065Z,145504.91
2023-05-01T05:38:43.289Z,145529.22
2023-05-01T05:41:14.248Z,145541.34
2023-05-01T05:43:41.850Z,145599.66
2023-05-01T05:46:09.820Z,145588.75
2023-05-01T05:48:37.975Z,145598.44
2023-05-01T05:51:05.100Z,145609.38
2023-05-01T05:53:32.229Z,145606.97
2023-05-01T05:55:59.292Z,145653.13
2023-05-01T05:58:26.680Z,145638.56
2023-05-01T06:00:55.585Z,145614.22
2023-05-01T06:03:23.291Z,145694.44
2023-05-01T06:05:53.188Z,145684.72
2023-05-01T06:08:20.444Z,145722.44
2023-05-01T06:10:48.106Z,145743.06
2023-05-01T06:13:15.471Z,145727.28
2023-05-01T06:15:48.884Z,145788.03
2023-05-01T06:18:16.698Z,145833.03
2023-05-01T06:20:43.906Z,145834.22
2023-05-01T06:23:10.963Z,145864.63
2023-05-01T06:25:48.726Z,145876.81
2023-05-01T06:28:15.916Z,145891.38
2023-05-01T06:30:43.240Z,145896.25
2023-05-01T06:33:11.499Z,145897.44
2023-05-01T06:35:40.276Z,145949.78
2023-05-01T06:38:07.399Z,145933.94
2023-05-01T06:40:35.160Z,146014.22
2023-05-01T06:43:03.280Z,146028.81
2023-05-01T06:45:30.363Z,146061.63
2023-05-01T06:47:57.345Z,146079.94
2023-05-01T06:50:24.559Z,146151.72
2023-05-01T06:52:51.608Z,146176.06
2023-05-01T06:55:18.643Z,146124.97
2023-05-01T06:57:45.891Z,146182.16
2023-05-01T07:00:13.747Z,146251.53
2023-05-01T07:02:41.125Z,146239.34
2023-05-01T07:05:08.514Z,146253.94
2023-05-01T07:07:37.463Z,146325.78
2023-05-01T07:10:06.342Z,146344.03
2023-05-01T07:12:33.510Z,146385.44
2023-05-01T07:15:00.747Z,146422.00
2023-05-01T07:17:29.410Z,146445.16
2023-05-01T07:19:56.788Z,146441.47
2023-05-01T07:22:24.207Z,146436.63
2023-05-01T07:24:51.204Z,146486.56
2023-05-01T07:27:18.194Z,146523.09
2023-05-01T07:29:45.208Z,146558.44
2023-05-01T07:32:12.301Z,146485.34
2023-05-01T07:34:39.457Z,146551.09
2023-05-01T07:37:06.461Z,146563.31
2023-05-01T07:39:33.481Z,146652.28
2023-05-01T07:42:00.499Z,146686.38
2023-05-01T07:44:27.524Z,146694.91
2023-05-01T07:46:54.757Z,146662.00
2023-05-01T07:49:21.812Z,146685.16
2023-05-01T07:51:49.569Z,146724.19
2023-05-01T07:54:16.965Z,146729.06
2023-05-01T07:56:44.308Z,146699.78
2023-05-01T07:59:11.332Z,146709.50
2023-05-01T08:01:38.382Z,146697.31
2023-05-01T08:04:05.511Z,146721.75
2023-05-01T08:06:32.635Z,146746.13
2023-05-01T08:08:59.642Z,146714.44
2023-05-01T08:11:26.944Z,146799.78
2023-05-01T08:13:53.918Z,146792.44
2023-05-01T08:16:22.134Z,146842.44
2023-05-01T08:18:49.330Z,146797.31
2023-05-01T08:21:16.557Z,146857.06
2023-05-01T08:23:43.545Z,146858.31
2023-05-01T08:26:10.630Z,146794.91
2023-05-01T08:28:37.794Z,146860.72
2023-05-01T08:31:04.869Z,146841.22
2023-05-01T08:33:31.983Z,146858.31
2023-05-01T08:35:59.412Z,146908.28
2023-05-01T08:38:26.513Z,146950.97
2023-05-01T08:40:54.218Z,146933.88
2023-05-01T08:43:21.739Z,146888.75
2023-05-01T08:45:51.052Z,146887.53
2023-05-01T08:48:24.021Z,147007.09
2023-05-01T08:50:53.564Z,147073.00
2023-05-01T08:53:22.093Z,147049.78
2023-05-01T08:55:51.613Z,147043.69
2023-05-01T08:58:20.200Z,147121.78
2023-05-01T09:00:47.791Z,147108.34
2023-05-01T09:03:16.728Z,147175.47
2023-05-01T09:05:43.842Z,147260.97
2023-05-01T09:08:10.906Z,147324.41
2023-05-01T09:10:44.105Z,147314.63
2023-05-01T09:13:11.191Z,147419.63
2023-05-01T09:15:38.735Z,147461.16
2023-05-01T09:18:05.950Z,147436.75
2023-05-01T09:20:37.081Z,147461.16
2023-05-01T09:23:04.378Z,147536.94
2023-05-01T09:25:31.486Z,147497.84
2023-05-01T09:27:58.599Z,147551.59
2023-05-01T09:30:38.810Z,147656.66
2023-05-01T09:33:06.747Z,147681.06
2023-05-01T09:35:49.290Z,147711.63
2023-05-01T09:38:21.279Z,147693.31
2023-05-01T09:40:48.460Z,147722.66
2023-05-01T09:43:25.007Z,147753.22
2023-05-01T09:46:09.328Z,147804.56
2023-05-01T09:48:37.555Z,147818.00
2023-05-01T09:51:25.444Z,147837.53
2023-05-01T09:53:54.347Z,147781.34
2023-05-01T09:56:21.854Z,147726.34
2023-05-01T09:58:52.253Z,147734.91
2023-05-01T10:01:37.240Z,147711.63
2023-05-01T10:04:04.725Z,147780.13
2023-05-01T10:06:31.948Z,147803.34
2023-05-01T10:08:59.080Z,147800.88
2023-05-01T10:11:26.858Z,147732.47
2023-05-01T10:14:09.354Z,147662.75
2023-05-01T10:16:38.403Z,147569.91
2023-05-01T10:19:06.382Z,147556.47
2023-05-01T10:21:34.013Z,147646.88
2023-05-01T10:24:06.455Z,147700.66
2023-05-01T10:26:36.993Z,147719.03
2023-05-01T10:29:04.641Z,147661.53
2023-05-01T10:31:32.771Z,147699.41
2023-05-01T10:34:03.129Z,147753.22
2023-05-01T10:36:39.974Z,147815.59
2023-05-01T10:39:11.366Z,147842.47
2023-05-01T10:42:01.807Z,147959.88
2023-05-01T10:44:29.477Z,147992.88
2023-05-01T10:46:56.633Z,147985.56
2023-05-01T10:49:23.914Z,147974.53
2023-05-01T10:51:57.997Z,147935.38
2023-05-01T10:54:26.786Z,147970.91
2023-05-01T10:57:01.274Z,148023.47
2023-05-01T11:00:01.522Z,148025.94
2023-05-01T11:02:30.313Z,148003.91
2023-05-01T11:04:57.711Z,147964.75
2023-05-01T11:07:26.006Z,147842.47
2023-05-01T11:09:55.505Z,147893.81
2023-05-01T11:12:44.938Z,147810.69
2023-05-01T11:15:13.553Z,147791.09
2023-05-01T11:17:43.465Z,147786.22
2023-05-01T11:20:11.697Z,147722.66
2023-05-01T11:22:40.724Z,147791.09
2023-05-01T11:25:24.629Z,147761.78
2023-05-01T11:27:53.918Z,147767.88
2023-05-01T11:30:21.287Z,147798.47
2023-05-01T11:32:49.652Z,147859.56
2023-05-01T11:35:26.251Z,147870.59
2023-05-01T11:37:55.831Z,147884.03
2023-05-01T11:40:28.364Z,147888.94
2023-05-01T11:43:03.716Z,147904.81
2023-05-01T11:45:31.715Z,147935.38
2023-05-01T11:48:01.378Z,147967.22
2023-05-01T11:50:35.849Z,147991.66
2023-05-01T11:53:15.741Z,147923.16
2023-05-01T11:55:43.470Z,147952.56
2023-05-01T11:58:11.168Z,147920.72
2023-05-01T12:00:41.618Z,147999.03
2023-05-01T12:03:10.974Z,147964.75
2023-05-01T12:05:42.871Z,147891.34
2023-05-01T12:08:20.701Z,147899.91
2023-05-01T12:10:51.617Z,147983.09
2023-05-01T12:13:19.729Z,148025.94
2023-05-01T12:15:55.888Z,147869.34
2023-05-01T12:18:23.252Z,147923.16
2023-05-01T12:20:53.189Z,147912.16
2023-05-01T12:23:31.498Z,147936.63
2023-05-01T12:25:58.717Z,147906.00
2023-05-01T12:28:27.642Z,147910.91
2023-05-01T12:31:04.697Z,147793.56
2023-05-01T12:33:32.502Z,147810.69
2023-05-01T12:36:11.803Z,147764.22
2023-05-01T12:38:39.047Z,147798.47
2023-05-01T12:41:08.877Z,147791.09
2023-05-01T12:43:37.366Z,147771.56
2023-05-01T12:46:06.750Z,147749.56
2023-05-01T12:48:38.993Z,147736.13
2023-05-01T12:51:06.682Z,147756.91
2023-05-01T12:53:34.054Z,147705.53
2023-05-01T12:56:03.155Z,147730.00
2023-05-01T12:58:37.050Z,147646.88
2023-05-01T13:01:04.750Z,147660.31
2023-05-01T13:03:33.589Z,147642.00
2023-05-01T13:06:03.065Z,147642.00
2023-05-01T13:08:36.905Z,147580.88
2023-05-01T13:11:13.197Z,147600.47
2023-05-01T13:13:40.859Z,147602.88
2023-05-01T13:16:17.428Z,147587.03
2023-05-01T13:18:49.851Z,147572.38
2023-05-01T13:21:21.690Z,147612.66
2023-05-01T13:23:54.224Z,147617.53
2023-05-01T13:26:28.999Z,147646.88
2023-05-01T13:28:57.186Z,147583.34
2023-05-01T13:31:24.598Z,147673.78
2023-05-01T13:33:53.655Z,147771.56
2023-05-01T13:36:26.168Z,147793.56
2023-05-01T13:38:56.821Z,147825.34
2023-05-01T13:41:26.317Z,147899.91
2023-05-01T13:43:55.366Z,147844.91
2023-05-01T13:46:26.378Z,147860.81
2023-05-01T13:48:53.649Z,147871.81
2023-05-01T13:51:22.960Z,147918.25
2023-05-01T13:53:50.567Z,147941.53
2023-05-01T13:56:17.670Z,148021.00
2023-05-01T13:58:45.085Z,148018.56
2023-05-01T14:01:24.378Z,148055.28
2023-05-01T14:03:51.919Z,148087.06
2023-05-01T14:06:20.725Z,148143.31
2023-05-01T14:08:50.585Z,148172.75
2023-05-01T14:11:18.258Z,148233.91
2023-05-01T14:13:47.527Z,148186.19
2023-05-01T14:16:25.206Z,148128.66
2023-05-01T14:18:55.227Z,148145.84
2023-05-01T14:21:25.064Z,148140.91
2023-05-01T14:23:53.093Z,148133.53
2023-05-01T14:26:21.432Z,148091.97
2023-05-01T14:28:48.885Z,148116.41
2023-05-01T14:31:24.206Z,148123.75
2023-05-01T14:33:55.054Z,148072.41
2023-05-01T14:36:22.499Z,148085.84
2023-05-01T14:38:50.642Z,148133.53
2023-05-01T14:41:21.059Z,148109.09
2023-05-01T14:43:53.004Z,148066.25
2023-05-01T14:46:32.180Z,148033.25
2023-05-01T14:49:01.089Z,148012.47
2023-05-01T14:51:32.025Z,148047.91
2023-05-01T14:53:59.530Z,148124.97
2023-05-01T14:56:27.047Z,148127.44
2023-05-01T14:58:54.118Z,148079.72
2023-05-01T15:01:21.719Z,148143.31
2023-05-01T15:03:49.078Z,148155.63
2023-05-01T15:06:17.037Z,148180.06
2023-05-01T15:08:44.318Z,148219.25
2023-05-01T15:11:13.939Z,148287.78
2023-05-01T15:13:42.572Z,148218.00
2023-05-01T15:16:10.955Z,148301.19
2023-05-01T15:18:38.678Z,148328.13
2023-05-01T15:21:05.998Z,148188.66
2023-05-01T15:23:33.151Z,148197.22
2023-05-01T15:26:01.671Z,148055.28
2023-05-01T15:28:29.459Z,147956.19
2023-05-01T15:30:56.608Z,147950.09
2023-05-01T15:33:23.769Z,147915.84
2023-05-01T15:35:52.564Z,147830.25
2023-05-01T15:38:22.765Z,147678.66
2023-05-01T15:40:50.146Z,147820.47
2023-05-01T15:43:17.296Z,147776.44
2023-05-01T15:45:44.844Z,147783.81
2023-05-01T15:48:12.081Z,147785.00
2023-05-01T15:50:39.471Z,147752.03
2023-05-01T15:53:06.577Z,147693.31
2023-05-01T15:55:34.653Z,147661.53
2023-05-01T15:58:02.630Z,147699.41
2023-05-01T16:00:29.785Z,147627.34
2023-05-01T16:02:57.086Z,147654.19
2023-05-01T16:05:24.816Z,147640.78
2023-05-01T16:07:55.064Z,147622.47
2023-05-01T16:10:23.017Z,147651.75
2023-05-01T16:12:50.990Z,147700.66
2023-05-01T16:15:18.302Z,147799.66
2023-05-01T16:17:46.549Z,147870.59
2023-05-01T16:20:14.774Z,148221.66
2023-05-01T16:22:43.121Z,148907.59
2023-05-01T16:25:10.657Z,148842.63
2023-05-01T16:27:44.063Z,148691.91
2023-05-01T16:30:14.265Z,148295.09
2023-05-01T16:32:41.750Z,148084.59
2023-05-01T16:35:17.511Z,148336.69
2023-05-01T16:37:44.576Z,148581.69
2023-05-01T16:40:16.613Z,148525.25
2023-05-01T16:42:49.731Z,148280.41
2023-05-01T16:45:16.901Z,148262.06
2023-05-01T16:47:47.412Z,148553.47
2023-05-01T16:50:15.043Z,148571.84
2023-05-01T16:52:42.339Z,148732.34
2023-05-01T16:55:32.509Z,148483.63
2023-05-01T16:58:51.718Z,148624.53
2023-05-01T17:01:49.883Z,148089.50
2023-05-01T17:05:15.535Z,147734.91
2023-05-01T17:08:24.610Z,147357.38
2023-05-01T17:12:04.660Z,147842.47
2023-05-01T17:15:14.316Z,147612.66
2023-05-01T17:18:00.832Z,147461.16
2023-05-01T17:20:48.124Z,147886.47
2023-05-01T17:23:31.895Z,147763.00
2023-05-01T17:27:08.189Z,147558.94
2023-05-01T17:30:20.381Z,147365.94
2023-05-01T17:36:01.108Z,147209.63
2023-05-01T17:38:28.188Z,147190.09
2023-05-01T17:40:55.415Z,147151.06
2023-05-01T17:43:22.450Z,147112.00
2023-05-01T17:45:50.125Z,147099.78
2023-05-01T17:48:19.557Z,147027.84
2023-05-01T17:50:47.336Z,147051.03
2023-05-01T17:53:14.477Z,146997.34
2023-05-01T17:55:41.547Z,147031.47
2023-05-01T17:58:08.650Z,147094.91
2023-05-01T18:00:38.180Z,147031.47
2023-05-01T18:03:05.995Z,146997.34
2023-05-01T18:05:33.303Z,146936.34
2023-05-01T18:08:00.651Z,146980.22
2023-05-01T18:10:31.080Z,146910.72
2023-05-01T18:12:58.572Z,146863.19
2023-05-01T18:15:26.081Z,146880.22
2023-05-01T18:17:54.006Z,146870.47
2023-05-01T18:20:21.266Z,146870.47
2023-05-01T18:22:48.354Z,146842.44
2023-05-01T18:25:16.249Z,146819.25
2023-05-01T18:27:45.056Z,146846.09
2023-05-01T18:30:12.340Z,146837.56
2023-05-01T18:32:46.936Z,146843.63
2023-05-01T18:35:19.021Z,146818.06
2023-05-01T18:37:46.642Z,146793.69
2023-05-01T18:40:13.835Z,146782.69
2023-05-01T18:42:41.786Z,146753.47
2023-05-01T18:45:10.216Z,146741.25
2023-05-01T18:47:37.422Z,146760.75
2023-05-01T18:50:05.762Z,146741.25
2023-05-01T18:52:32.985Z,146660.75
2023-05-01T18:55:00.060Z,146694.91
2023-05-01T18:57:28.600Z,146670.53
2023-05-01T18:59:55.772Z,146680.28
2023-05-01T19:02:23.054Z,146662.00
2023-05-01T19:04:57.545Z,146621.78
2023-05-01T19:07:26.359Z,146599.84
2023-05-01T19:09:53.721Z,146574.28
2023-05-01T19:12:20.792Z,146553.56
2023-05-01T19:14:47.982Z,146534.09
2023-05-01T19:17:15.017Z,146535.28
2023-05-01T19:19:42.348Z,146482.94
2023-05-01T19:22:09.337Z,146512.16
2023-05-01T19:24:36.404Z,146456.13
2023-05-01T19:27:03.618Z,146495.09
2023-05-01T19:29:34.116Z,146481.69
2023-05-01T19:32:01.411Z,146471.94
2023-05-01T19:34:28.712Z,146447.59
2023-05-01T19:37:00.201Z,146447.59
2023-05-01T19:39:28.972Z,146425.66
2023-05-01T19:41:56.242Z,146402.50
2023-05-01T19:44:23.334Z,146333.09
2023-05-01T19:46:50.411Z,146373.28
2023-05-01T19:49:17.692Z,146341.63
2023-05-01T19:51:45.632Z,146342.84
2023-05-01T19:54:12.648Z,146322.13
2023-05-01T19:56:39.661Z,146322.13
2023-05-01T19:59:06.723Z,146292.91
2023-05-01T20:01:33.870Z,146312.38
2023-05-01T20:04:01.106Z,146307.50
2023-05-01T20:06:28.205Z,146288.03
2023-05-01T20:08:55.223Z,146290.47
2023-05-01T20:11:22.224Z,146290.47
2023-05-01T20:13:49.226Z,146280.72
2023-05-01T20:16:16.256Z,146283.19
2023-05-01T20:18:43.359Z,146279.53
2023-05-01T20:21:10.575Z,146264.91
2023-05-01T20:23:37.724Z,146247.88
2023-05-01T20:26:04.746Z,146244.22
2023-05-01T20:28:31.940Z,146225.97
2023-05-01T20:30:59.229Z,146236.94
2023-05-01T20:33:26.338Z,146215.03
2023-05-01T20:35:53.988Z,146179.72
2023-05-01T20:38:21.863Z,146152.94
2023-05-01T20:40:48.866Z,146183.38
2023-05-01T20:43:16.149Z,146187.03
2023-05-01T20:45:43.171Z,146189.44
2023-05-01T20:48:11.299Z,146154.19
2023-05-01T20:50:38.483Z,146151.72
2023-05-01T20:53:05.494Z,146142.00
2023-05-01T20:55:32.577Z,146167.53
2023-05-01T20:57:59.704Z,146137.13
2023-05-01T21:00:26.748Z,146172.44
2023-05-01T21:02:53.961Z,146166.31
2023-05-01T21:05:21.209Z,146167.53
2023-05-01T21:07:48.305Z,146173.66
2023-05-01T21:10:16.547Z,146154.19
2023-05-01T21:12:43.829Z,146150.53
2023-05-01T21:15:11.731Z,146129.81
2023-05-01T21:17:40.153Z,146142.00
2023-05-01T21:20:17.312Z,146142.00
2023-05-01T21:22:45.564Z,146110.38
2023-05-01T21:25:15.332Z,145988.66
2023-05-01T21:27:42.459Z,146101.84
2023-05-01T21:30:17.295Z,146098.19
2023-05-01T21:32:44.480Z,146071.38
2023-05-01T21:35:15.114Z,146008.16
2023-05-01T21:37:44.618Z,146014.22
2023-05-01T21:40:13.888Z,146014.22
2023-05-01T21:42:40.956Z,145974.06
2023-05-01T21:45:09.833Z,145974.06
2023-05-01T21:47:41.559Z,145978.94
2023-05-01T21:50:11.779Z,145966.75
2023-05-01T21:52:39.367Z,145918.16
2023-05-01T21:55:08.919Z,145909.63
2023-05-01T21:57:37.011Z,145920.56
2023-05-01T22:00:11.361Z,145903.56
2023-05-01T22:02:44.392Z,145910.84
2023-05-01T22:05:14.143Z,145915.69
2023-05-01T22:07:43.658Z,145864.63
2023-05-01T22:10:19.975Z,145913.28
2023-05-01T22:12:49.243Z,145859.78
2023-05-01T22:15:16.639Z,145881.66
2023-05-01T22:17:44.505Z,145920.56
2023-05-01T22:20:11.844Z,145864.63
2023-05-01T22:22:40.341Z,145879.22
2023-05-01T22:25:08.278Z,145863.44
2023-05-01T22:27:36.093Z,145857.31
2023-05-01T22:30:04.790Z,145841.53
2023-05-01T22:32:31.988Z,145829.38
2023-05-01T22:34:59.376Z,145818.44
2023-05-01T22:37:26.589Z,145764.94
2023-05-01T22:39:53.923Z,145785.63
2023-05-01T22:42:21.646Z,145762.53
2023-05-01T22:44:48.924Z,145711.50
2023-05-01T22:47:16.087Z,145727.28
2023-05-01T22:49:43.051Z,145667.69
2023-05-01T22:52:10.073Z,145711.50
2023-05-01T22:54:37.083Z,145698.09
2023-05-01T22:57:04.151Z,145682.25
2023-05-01T22:59:31.178Z,145677.41
2023-05-01T23:01:58.419Z,145650.66
2023-05-01T23:04:25.580Z,145672.56
2023-05-01T23:06:52.702Z,145679.84
2023-05-01T23:09:19.824Z,145678.59
2023-05-01T23:11:47.704Z,145662.84
2023-05-01T23:14:18.222Z,145606.97
2023-05-01T23:16:45.311Z,145623.94
2023-05-01T23:19:23.773Z,145611.81
2023-05-01T23:22:04.631Z,145606.97
2023-05-01T23:24:44.881Z,145609.38
2023-05-01T23:27:13.418Z,145599.66
2023-05-01T23:29:41.150Z,145583.88
2023-05-01T23:32:10.957Z,145497.63
2023-05-01T23:34:40.062Z,145546.19
2023-05-01T23:37:07.189Z,145524.31
2023-05-01T23:39:34.173Z,145521.91
2023-05-01T23:42:02.444Z,145551.06
2023-05-01T23:44:29.665Z,145541.34
2023-05-01T23:46:56.786Z,145566.88
2023-05-01T23:49:23.849Z,145575.38
2023-05-01T23:51:50.924Z,145589.94
2023-05-01T23:54:17.920Z,145572.91
2023-05-01T23:56:44.938Z,145534.06
2023-05-01T23:59:12.054Z,145502.50
